Time;durP1;ratioP1;P1;durP2;ratioP2;P2;SDS_P1;SDS_P2;PMS_P1;PMS_P2;Temp;Humidity;BMP_temperature;BMP_pressure;BME280_temperature;BME280_humidity;BME280_pressure;Samples;Min_cycle;Max_cycle;Signal;HPM_P1;HPM_P2
2021/12/15 00:01:15;;;;;;;68.22;31.08;;;;;;;;;;5051772;28;20053;-64
2021/12/15 00:03:41;;;;;;;71.25;33.15;;;;;;;;;;5051949;28;20116;-62
2021/12/15 00:06:12;;;;;;;71.05;35.65;;;;;;;;;;5051958;28;20032;-64
2021/12/15 00:08:38;;;;;;;;;;;;;;;;;;5051841;28;20032;-64
2021/12/15 00:11:05;;;;;;;77.00;37.25;;;;;;;;;;5051781;28;20371;-63
2021/12/15 00:13:32;;;;;;;93.90;43.05;;;;;;;;;;5051910;28;20021;-63
2021/12/15 00:15:58;;;;;;;98.35;46.55;;;;;;;;;;5051665;28;20025;-64
2021/12/15 00:18:25;;;;;;;96.03;44.47;;;;;;;;;;5051740;28;20021;-64
2021/12/15 00:20:51;;;;;;;95.03;45.67;;;;;;;;;;5051505;28;20024;-64
2021/12/15 00:23:17;;;;;;;104.28;46.65;;;;;;;;;;5051596;28;20078;-63
2021/12/15 00:25:44;;;;;;;100.15;46.58;;;;;;;;;;5051758;28;20017;-64
2021/12/15 00:28:10;;;;;;;101.97;45.03;;;;;;;;;;5051556;28;20033;-64
2021/12/15 00:30:37;;;;;;;89.45;39.08;;;;;;;;;;5052471;28;20017;-61
2021/12/15 00:33:03;;;;;;;78.20;33.95;;;;;;;;;;5055279;28;20017;-61
2021/12/15 00:35:30;;;;;;;73.97;34.00;;;;;;;;;;5055370;28;20024;-63
2021/12/15 00:37:56;;;;;;;76.05;34.60;;;;;;;;;;5055611;28;20033;-60
2021/12/15 00:40:24;;;;;;;70.95;33.05;;;;;;;;;;5055471;28;20122;-65
2021/12/15 00:42:50;;;;;;;75.63;32.25;;;;;;;;;;5054911;28;20028;-61
2021/12/15 00:45:17;;;;;;;77.22;34.17;;;;;;;;;;5055232;28;20028;-63
2021/12/15 00:47:44;;;;;;;75.57;33.22;;;;;;;;;;5055272;28;20028;-63
2021/12/15 00:50:11;;;;;;;76.93;33.50;;;;;;;;;;5055117;28;20021;-62
2021/12/15 00:52:38;;;;;;;86.15;39.13;;;;;;;;;;5055067;28;20100;-63
2021/12/15 00:55:06;;;;;;;96.75;42.97;;;;;;;;;;5055337;28;20071;-62
2021/12/15 00:57:32;;;;;;;88.72;41.50;;;;;;;;;;5054538;28;20037;-63
2021/12/15 00:59:58;;;;;;;100.70;42.72;;;;;;;;;;5055312;28;20059;-63
2021/12/15 01:02:24;;;;;;;95.60;40.08;;;;;;;;;;5054784;28;20025;-62
2021/12/15 01:04:51;;;;;;;96.93;43.58;;;;;;;;;;5054857;28;20021;-64
2021/12/15 01:07:17;;;;;;;93.50;43.65;;;;;;;;;;5055049;28;20047;-62
2021/12/15 01:09:47;;;;;;;88.40;40.67;;;;;;;;;;5054571;28;20459;-62
2021/12/15 01:12:44;;;;;;;86.30;38.35;;;;;;;;;;5054632;28;20454;-62
2021/12/15 01:20:31;;;;;;;64.97;31.92;;;;;;;;;;5054955;28;20032;-63
2021/12/15 01:22:59;;;;;;;67.97;32.28;;;;;;;;;;5055011;28;20352;-65
2021/12/15 01:25:27;;;;;;;64.65;30.38;;;;;;;;;;5054632;28;20379;-62
2021/12/15 01:27:54;;;;;;;65.55;30.40;;;;;;;;;;5054734;28;20043;-62
2021/12/15 01:30:23;;;;;;;63.13;29.33;;;;;;;;;;5054724;28;20074;-64
2021/12/15 01:32:50;;;;;;;60.25;28.05;;;;;;;;;;5051855;28;20016;-64
2021/12/15 01:35:16;;;;;;;65.53;30.42;;;;;;;;;;5054496;28;20041;-63
2021/12/15 01:37:43;;;;;;;67.60;32.30;;;;;;;;;;5054511;28;20566;-61
2021/12/15 01:40:16;;;;;;;90.07;36.30;;;;;;;;;;5054130;28;20036;-62
2021/12/15 01:42:42;;;;;;;91.68;38.90;;;;;;;;;;5053798;28;20032;-62
2021/12/15 01:48:01;;;;;;;93.57;40.13;;;;;;;;;;5052862;28;20143;-63
2021/12/15 01:50:28;;;;;;;102.78;40.10;;;;;;;;;;5051425;28;20475;-63
2021/12/15 01:52:54;;;;;;;79.65;35.30;;;;;;;;;;5053745;28;20057;-61
2021/12/15 01:55:20;;;;;;;81.20;37.10;;;;;;;;;;5054065;28;20530;-62
2021/12/15 01:57:47;;;;;;;87.25;36.78;;;;;;;;;;5051356;28;20467;-64
2021/12/15 02:00:19;;;;;;;90.38;39.03;;;;;;;;;;5063530;28;20024;-63
2021/12/15 02:02:46;;;;;;;67.15;31.65;;;;;;;;;;5065044;28;20058;-62
2021/12/15 02:05:12;;;;;;;76.95;32.50;;;;;;;;;;5063343;28;20100;-64
2021/12/15 02:07:40;;;;;;;67.47;29.83;;;;;;;;;;5062855;28;20033;-63
2021/12/15 02:10:07;;;;;;;64.55;28.23;;;;;;;;;;5064772;28;20035;-64
2021/12/15 02:12:37;;;;;;;72.65;30.73;;;;;;;;;;5063691;28;20021;-62
2021/12/15 02:15:23;;;;;;;67.07;29.30;;;;;;;;;;5062384;28;20013;-64
2021/12/15 02:17:49;;;;;;;61.10;29.05;;;;;;;;;;5060607;28;20025;-62
2021/12/15 02:20:17;;;;;;;78.63;34.75;;;;;;;;;;5063122;28;20478;-63
2021/12/15 02:22:44;;;;;;;73.68;34.03;;;;;;;;;;5064611;28;20107;-63
2021/12/15 02:25:13;;;;;;;60.63;28.95;;;;;;;;;;5062874;28;20017;-63
2021/12/15 02:27:39;;;;;;;52.88;25.40;;;;;;;;;;5062548;28;20024;-64
2021/12/15 02:30:20;;;;;;;58.00;27.35;;;;;;;;;;5064490;28;20019;-63
2021/12/15 02:33:11;;;;;;;;;;;;;;;;;;5060214;28;20092;-62
2021/12/15 02:38:33;;;;;;;47.53;21.08;;;;;;;;;;5063500;28;20032;-60
2021/12/15 02:41:07;;;;;;;39.90;20.27;;;;;;;;;;5063467;28;20367;-61
2021/12/15 02:43:34;;;;;;;46.45;20.10;;;;;;;;;;5061114;28;20021;-63
2021/12/15 02:46:00;;;;;;;43.45;21.02;;;;;;;;;;5062652;28;20016;-62
2021/12/15 02:48:26;;;;;;;46.08;22.38;;;;;;;;;;5063393;28;20131;-63
2021/12/15 02:50:52;;;;;;;44.30;21.35;;;;;;;;;;5062895;28;20021;-62
2021/12/15 02:53:18;;;;;;;48.58;22.00;;;;;;;;;;5062282;28;20030;-61
2021/12/15 02:55:45;;;;;;;46.05;22.33;;;;;;;;;;5062627;28;20025;-62
2021/12/15 02:58:12;;;;;;;48.58;21.88;;;;;;;;;;5061242;28;20049;-63
2021/12/15 03:00:54;;;;;;;41.53;21.50;;;;;;;;;;5052715;28;20070;-62
2021/12/15 03:05:58;;;;;;;48.03;23.88;;;;;;;;;;5050521;28;20526;-61
2021/12/15 03:08:45;;;;;;;49.22;23.65;;;;;;;;;;5052483;28;20021;-62
2021/12/15 03:16:44;;;;;;;49.25;23.90;;;;;;;;;;5051717;28;20036;-62
2021/12/15 03:19:10;;;;;;;51.42;24.48;;;;;;;;;;5050034;28;20021;-61
2021/12/15 03:21:37;;;;;;;53.70;23.80;;;;;;;;;;5052521;28;20491;-62
2021/12/15 03:24:03;;;;;;;46.10;23.38;;;;;;;;;;5052004;28;20096;-62
2021/12/15 03:26:35;;;;;;;47.80;23.20;;;;;;;;;;5042843;28;20039;-62
2021/12/15 03:35:03;;;;;;;51.13;23.85;;;;;;;;;;5050263;28;20032;-61
2021/12/15 03:37:32;;;;;;;53.30;24.55;;;;;;;;;;5051710;28;20811;-64
2021/12/15 03:39:58;;;;;;;43.15;23.10;;;;;;;;;;5052268;28;20058;-61
2021/12/15 03:42:33;;;;;;;54.47;26.27;;;;;;;;;;5052155;28;20112;-64
2021/12/15 03:45:00;;;;;;;56.60;25.77;;;;;;;;;;5052025;28;20045;-60
2021/12/15 03:47:29;;;;;;;53.90;25.05;;;;;;;;;;5052396;28;20017;-63
2021/12/15 03:49:56;;;;;;;46.50;22.08;;;;;;;;;;5059350;28;20374;-62
2021/12/15 03:52:22;;;;;;;52.85;24.40;;;;;;;;;;5051846;28;20029;-61
2021/12/15 03:54:49;;;;;;;44.15;21.98;;;;;;;;;;5049692;28;20103;-62
2021/12/15 03:57:16;;;;;;;48.85;23.63;;;;;;;;;;5051321;28;20045;-63
2021/12/15 03:59:43;;;;;;;47.22;23.30;;;;;;;;;;5051379;28;20498;-62
2021/12/15 04:02:12;;;;;;;55.30;25.27;;;;;;;;;;5049396;28;20067;-63
2021/12/15 04:04:38;;;;;;;59.85;26.73;;;;;;;;;;5051818;28;20032;-62
2021/12/15 04:07:05;;;;;;;41.95;23.00;;;;;;;;;;5054719;28;20023;-61
2021/12/15 04:09:31;;;;;;;49.38;23.63;;;;;;;;;;5055902;28;20021;-62
2021/12/15 04:11:59;;;;;;;39.25;19.95;;;;;;;;;;5056102;28;20017;-62
2021/12/15 04:14:31;;;;;;;42.72;20.05;;;;;;;;;;5055564;28;20013;-63
2021/12/15 04:17:01;;;;;;;38.78;18.85;;;;;;;;;;5055801;28;20013;-64
2021/12/15 04:19:27;;;;;;;37.78;19.00;;;;;;;;;;5055063;28;20471;-62
2021/12/15 04:21:53;;;;;;;34.70;18.30;;;;;;;;;;5054749;28;20483;-63
2021/12/15 04:24:20;;;;;;;40.85;19.02;;;;;;;;;;5055467;28;20028;-64
2021/12/15 04:26:47;;;;;;;41.55;19.95;;;;;;;;;;5054924;28;20017;-64
2021/12/15 04:29:14;;;;;;;51.58;21.45;;;;;;;;;;5055518;28;20021;-64
2021/12/15 04:31:44;;;;;;;40.72;19.60;;;;;;;;;;5055792;28;20032;-62
2021/12/15 04:34:11;;;;;;;45.30;20.25;;;;;;;;;;5053359;28;20021;-62
2021/12/15 04:36:39;;;;;;;39.13;18.77;;;;;;;;;;5055483;28;20028;-61
2021/12/15 04:39:06;;;;;;;39.63;18.83;;;;;;;;;;5045812;28;20425;-63
2021/12/15 04:41:32;;;;;;;34.38;17.10;;;;;;;;;;5055287;28;20029;-65
2021/12/15 04:44:01;;;;;;;38.70;19.05;;;;;;;;;;5055448;28;20021;-64
2021/12/15 04:46:30;;;;;;;38.83;17.85;;;;;;;;;;5054963;28;20471;-64
2021/12/15 04:48:57;;;;;;;32.47;17.55;;;;;;;;;;5045456;28;20386;-63
2021/12/15 04:51:30;;;;;;;33.80;16.25;;;;;;;;;;5062589;28;20067;-64
2021/12/15 04:53:59;;;;;;;37.15;17.05;;;;;;;;;;5055050;28;20049;-63
2021/12/15 04:56:25;;;;;;;47.65;23.58;;;;;;;;;;5054633;28;20025;-62
2021/12/15 04:58:52;;;;;;;38.88;21.25;;;;;;;;;;5055175;28;20130;-62
2021/12/15 05:01:19;;;;;;;36.17;17.70;;;;;;;;;;5054793;28;20017;-61
2021/12/15 05:03:45;;;;;;;33.15;16.30;;;;;;;;;;5055111;28;20029;-62
2021/12/15 05:06:12;;;;;;;38.42;17.25;;;;;;;;;;5054908;28;20013;-63
2021/12/15 05:08:39;;;;;;;36.13;17.17;;;;;;;;;;5054725;28;20021;-63
2021/12/15 05:11:06;;;;;;;35.92;17.17;;;;;;;;;;5054969;28;20013;-61
2021/12/15 05:13:34;;;;;;;39.30;18.65;;;;;;;;;;5055024;28;20093;-62
2021/12/15 05:16:02;;;;;;;46.90;23.17;;;;;;;;;;5054698;28;20013;-62
2021/12/15 05:18:28;;;;;;;42.08;18.67;;;;;;;;;;5053576;28;20025;-63
2021/12/15 05:20:54;;;;;;;36.90;18.13;;;;;;;;;;5054083;28;20021;-62
2021/12/15 05:23:26;;;;;;;37.33;19.77;;;;;;;;;;5054530;28;20017;-62
2021/12/15 05:25:52;;;;;;;41.67;20.35;;;;;;;;;;5052581;28;20017;-62
2021/12/15 05:28:18;;;;;;;49.08;21.23;;;;;;;;;;5054444;28;20029;-63
2021/12/15 05:30:44;;;;;;;35.13;17.55;;;;;;;;;;5054872;28;20017;-63
2021/12/15 05:33:10;;;;;;;38.90;18.67;;;;;;;;;;5055650;28;20017;-62
2021/12/15 05:35:37;;;;;;;42.72;18.92;;;;;;;;;;5055950;28;20013;-62
2021/12/15 05:38:04;;;;;;;37.42;19.48;;;;;;;;;;5055528;28;20021;-62
2021/12/15 05:40:31;;;;;;;46.22;21.08;;;;;;;;;;5052917;28;20112;-61
2021/12/15 05:42:57;;;;;;;41.13;21.52;;;;;;;;;;5055556;28;20017;-63
2021/12/15 05:45:25;;;;;;;51.00;24.20;;;;;;;;;;5053881;28;20029;-62
2021/12/15 05:47:51;;;;;;;51.10;24.35;;;;;;;;;;5053722;28;20017;-63
2021/12/15 05:50:18;;;;;;;49.03;23.48;;;;;;;;;;5052840;28;20057;-64
2021/12/15 05:52:44;;;;;;;50.40;24.52;;;;;;;;;;5054068;28;20446;-63
2021/12/15 05:55:12;;;;;;;48.92;21.90;;;;;;;;;;5053597;28;20017;-61
2021/12/15 05:57:39;;;;;;;49.30;23.42;;;;;;;;;;5053568;28;20144;-62
2021/12/15 06:00:08;;;;;;;47.17;23.35;;;;;;;;;;5064210;28;20505;-62
2021/12/15 06:02:34;;;;;;;52.20;25.35;;;;;;;;;;5063617;28;20025;-63
2021/12/15 06:05:01;;;;;;;47.53;22.98;;;;;;;;;;5054396;28;20023;-63
2021/12/15 06:07:27;;;;;;;46.70;23.20;;;;;;;;;;5053663;28;20020;-63
2021/12/15 06:09:53;;;;;;;44.88;23.60;;;;;;;;;;5054820;28;20374;-61
2021/12/15 06:12:19;;;;;;;45.30;21.73;;;;;;;;;;5054426;28;20459;-62
2021/12/15 06:14:45;;;;;;;39.83;20.60;;;;;;;;;;5054644;28;20049;-62
2021/12/15 06:17:12;;;;;;;50.35;22.42;;;;;;;;;;5052055;28;20020;-62
2021/12/15 06:19:39;;;;;;;57.40;26.17;;;;;;;;;;5053372;28;20032;-64
2021/12/15 06:22:06;;;;;;;35.70;19.75;;;;;;;;;;5054451;28;20047;-61
2021/12/15 06:24:32;;;;;;;45.35;20.17;;;;;;;;;;5054834;28;20013;-61
2021/12/15 06:27:04;;;;;;;38.15;19.92;;;;;;;;;;5054402;28;20025;-62
2021/12/15 06:29:31;;;;;;;43.63;19.58;;;;;;;;;;5054660;28;20025;-63
2021/12/15 06:31:57;;;;;;;39.95;21.05;;;;;;;;;;5054369;28;20032;-62
2021/12/15 06:34:23;;;;;;;43.05;21.35;;;;;;;;;;5058657;28;20494;-62
2021/12/15 06:36:49;;;;;;;46.60;22.23;;;;;;;;;;5062998;28;20459;-64
2021/12/15 06:39:16;;;;;;;43.30;21.40;;;;;;;;;;5061853;28;20020;-62
2021/12/15 06:41:42;;;;;;;39.15;18.95;;;;;;;;;;5071432;28;20028;-63
2021/12/15 06:44:10;;;;;;;38.42;19.92;;;;;;;;;;5072958;28;20513;-62
2021/12/15 06:59:53;;;;;;;42.92;20.65;;;;;;;;;;5074530;28;20053;-61
2021/12/15 07:02:19;;;;;;;40.33;19.67;;;;;;;;;;5072727;28;20490;-62
2021/12/15 07:04:45;;;;;;;43.67;19.00;;;;;;;;;;5072811;28;20024;-64
2021/12/15 07:07:12;;;;;;;42.22;18.70;;;;;;;;;;5073399;28;20074;-64
2021/12/15 07:09:38;;;;;;;44.72;20.25;;;;;;;;;;5073367;28;20471;-62
2021/12/15 07:12:05;;;;;;;40.13;19.48;;;;;;;;;;5072999;28;20386;-60
2021/12/15 07:14:31;;;;;;;44.17;19.98;;;;;;;;;;5073351;28;20419;-63
2021/12/15 07:16:59;;;;;;;41.90;18.88;;;;;;;;;;5073700;28;20032;-63
2021/12/15 07:19:51;;;;;;;38.10;17.98;;;;;;;;;;5072846;28;20028;-63
2021/12/15 07:22:29;;;;;;;39.33;16.83;;;;;;;;;;5072468;28;20017;-61
2021/12/15 07:24:55;;;;;;;32.80;16.17;;;;;;;;;;5073383;28;20543;-60
2021/12/15 07:27:21;;;;;;;42.55;18.27;;;;;;;;;;5073596;28;20463;-64
2021/12/15 07:29:47;;;;;;;33.20;16.77;;;;;;;;;;5073166;28;20024;-60
2021/12/15 07:32:13;;;;;;;30.90;15.65;;;;;;;;;;5073757;28;20099;-61
2021/12/15 07:34:39;;;;;;;29.38;15.52;;;;;;;;;;5073374;28;20407;-62
2021/12/15 07:37:06;;;;;;;33.75;16.33;;;;;;;;;;5073185;28;20021;-63
2021/12/15 07:39:34;;;;;;;36.08;16.75;;;;;;;;;;5072115;28;20036;-63
2021/12/15 07:42:07;;;;;;;30.50;16.77;;;;;;;;;;5073141;28;20016;-60
2021/12/15 07:44:34;;;;;;;35.22;16.83;;;;;;;;;;5073307;28;20027;-61
2021/12/15 07:47:04;;;;;;;32.47;17.08;;;;;;;;;;5073647;28;20027;-62
2021/12/15 07:49:31;;;;;;;70.15;32.72;;;;;;;;;;5073720;28;20556;-60
2021/12/15 07:52:03;;;;;;;72.47;32.60;;;;;;;;;;5073368;28;20027;-61
2021/12/15 07:54:34;;;;;;;63.65;31.38;;;;;;;;;;5073612;28;20021;-62
2021/12/15 07:57:01;;;;;;;61.97;30.95;;;;;;;;;;5073228;28;20031;-65
2021/12/15 07:59:27;;;;;;;63.45;30.17;;;;;;;;;;5073710;28;20127;-63
2021/12/15 08:01:54;;;;;;;68.10;30.85;;;;;;;;;;5073237;28;20069;-63
2021/12/15 08:04:20;;;;;;;72.10;34.10;;;;;;;;;;5072929;28;20160;-63
2021/12/15 08:06:47;;;;;;;75.90;37.03;;;;;;;;;;5073155;28;20429;-65
2021/12/15 08:09:13;;;;;;;86.35;38.17;;;;;;;;;;5073444;28;20020;-62
2021/12/15 08:11:40;;;;;;;80.97;37.58;;;;;;;;;;5072951;28;20418;-65
2021/12/15 08:14:06;;;;;;;89.63;40.88;;;;;;;;;;5073415;28;20016;-61
2021/12/15 08:16:32;;;;;;;79.20;38.08;;;;;;;;;;5073361;28;20031;-61
2021/12/15 08:18:59;;;;;;;70.03;33.85;;;;;;;;;;5072956;28;20025;-62
2021/12/15 08:21:25;;;;;;;59.35;28.13;;;;;;;;;;5073541;28;20111;-64
2021/12/15 08:23:51;;;;;;;60.22;29.50;;;;;;;;;;5073622;28;20029;-62
2021/12/15 08:26:18;;;;;;;65.70;30.90;;;;;;;;;;5073042;28;20494;-64
2021/12/15 08:28:44;;;;;;;64.95;30.65;;;;;;;;;;5072986;28;20029;-63
2021/12/15 08:31:10;;;;;;;51.80;26.05;;;;;;;;;;5072925;28;20023;-63
2021/12/15 08:33:37;;;;;;;54.30;27.17;;;;;;;;;;5073291;28;20016;-66
2021/12/15 08:36:12;;;;;;;54.80;25.90;;;;;;;;;;5073239;28;20020;-65
2021/12/15 08:38:40;;;;;;;54.00;25.90;;;;;;;;;;5072817;28;20099;-64
2021/12/15 08:41:08;;;;;;;51.72;28.08;;;;;;;;;;5073144;28;20048;-63
2021/12/15 08:43:35;;;;;;;49.05;25.85;;;;;;;;;;5073109;28;20039;-63
2021/12/15 08:46:04;;;;;;;40.95;21.55;;;;;;;;;;5073101;28;20020;-65
2021/12/15 08:48:31;;;;;;;41.70;21.83;;;;;;;;;;5073092;28;20033;-63
2021/12/15 08:50:58;;;;;;;37.25;19.83;;;;;;;;;;5073363;28;20044;-64
2021/12/15 08:53:24;;;;;;;44.22;21.65;;;;;;;;;;5075694;28;20028;-61
2021/12/15 08:55:51;;;;;;;41.75;20.33;;;;;;;;;;5076696;28;20020;-62
2021/12/15 08:58:19;;;;;;;43.45;22.40;;;;;;;;;;5076788;28;20051;-63
2021/12/15 09:00:47;;;;;;;54.13;23.48;;;;;;;;;;5076418;28;20051;-62
2021/12/15 09:03:15;;;;;;;55.38;23.60;;;;;;;;;;5076274;28;20012;-64
2021/12/15 09:05:42;;;;;;;50.55;23.83;;;;;;;;;;5076478;28;20539;-63
2021/12/15 09:08:08;;;;;;;55.10;25.98;;;;;;;;;;5076485;28;20029;-66
2021/12/15 09:10:35;;;;;;;49.10;24.30;;;;;;;;;;5076143;28;20105;-65
2021/12/15 09:13:02;;;;;;;53.28;25.15;;;;;;;;;;5076139;28;20391;-64
2021/12/15 09:15:28;;;;;;;65.90;31.92;;;;;;;;;;5075751;28;20386;-63
2021/12/15 09:17:54;;;;;;;68.20;32.88;;;;;;;;;;5075888;28;20036;-62
2021/12/15 09:20:23;;;;;;;66.32;31.80;;;;;;;;;;5076115;28;20023;-64
2021/12/15 09:22:50;;;;;;;61.17;31.35;;;;;;;;;;5076150;28;20024;-62
2021/12/15 09:25:17;;;;;;;69.03;31.20;;;;;;;;;;5076344;28;20069;-64
2021/12/15 09:27:43;;;;;;;56.35;26.05;;;;;;;;;;5075540;28;20021;-65
2021/12/15 09:30:11;;;;;;;51.45;24.90;;;;;;;;;;5076131;28;20032;-63
2021/12/15 09:32:38;;;;;;;43.90;22.40;;;;;;;;;;5076015;28;20027;-63
2021/12/15 09:35:05;;;;;;;40.92;19.98;;;;;;;;;;5075187;28;20033;-65
2021/12/15 09:37:31;;;;;;;38.78;18.80;;;;;;;;;;5075912;28;20036;-63
2021/12/15 09:39:57;;;;;;;45.20;19.15;;;;;;;;;;5076023;28;20029;-62
2021/12/15 09:42:31;;;;;;;35.45;16.83;;;;;;;;;;5075202;28;20013;-63
2021/12/15 09:45:04;;;;;;;35.30;17.10;;;;;;;;;;5076585;28;20112;-63
2021/12/15 09:47:47;;;;;;;35.25;16.90;;;;;;;;;;5074056;28;20054;-64
2021/12/15 10:04:26;;;;;;;28.20;15.15;;;;;;;;;;5074395;28;20032;-64
2021/12/15 10:18:41;;;;;;;42.20;21.20;;;;;;;;;;5074465;28;20032;-62
2021/12/15 10:20:58;;;;;;;39.28;19.27;;;;;;;;;;5074158;28;20024;-61
2021/12/15 10:23:33;;;;;;;33.75;17.63;;;;;;;;;;5074635;28;20021;-62
2021/12/15 10:26:00;;;;;;;38.17;18.58;;;;;;;;;;5074883;28;20023;-62
2021/12/15 10:28:27;;;;;;;36.00;17.95;;;;;;;;;;5074566;28;20074;-61
2021/12/15 10:30:56;;;;;;;30.33;16.08;;;;;;;;;;5074301;28;20050;-64
2021/12/15 10:33:25;;;;;;;33.05;16.63;;;;;;;;;;5074730;28;20036;-63
2021/12/15 10:35:57;;;;;;;34.53;17.10;;;;;;;;;;5075073;28;20400;-61
2021/12/15 10:38:29;;;;;;;26.75;14.65;;;;;;;;;;5074507;28;20382;-63
2021/12/15 10:41:01;;;;;;;30.05;14.25;;;;;;;;;;5074733;28;20025;-63
2021/12/15 10:43:32;;;;;;;30.23;15.77;;;;;;;;;;5074418;28;20466;-61
2021/12/15 10:46:01;;;;;;;29.48;15.57;;;;;;;;;;5074309;28;20104;-62
2021/12/15 10:48:36;;;;;;;29.33;15.57;;;;;;;;;;5074506;28;20532;-63
2021/12/15 10:51:20;;;;;;;28.65;15.18;;;;;;;;;;5074809;28;20039;-62
2021/12/15 10:53:46;;;;;;;30.02;15.05;;;;;;;;;;5074414;28;20024;-62
2021/12/15 10:56:14;;;;;;;33.47;15.10;;;;;;;;;;5074414;28;20025;-63
2021/12/15 10:58:42;;;;;;;26.35;14.20;;;;;;;;;;5073666;28;20094;-63
2021/12/15 11:01:27;;;;;;;26.65;15.18;;;;;;;;;;5074329;28;20485;-65
2021/12/15 11:03:53;;;;;;;29.92;14.18;;;;;;;;;;5074256;28;20024;-61
2021/12/15 11:06:30;;;;;;;24.40;13.55;;;;;;;;;;5073987;28;20016;-62
2021/12/15 11:09:11;;;;;;;25.90;14.07;;;;;;;;;;5074243;28;20017;-62
2021/12/15 11:11:37;;;;;;;;;;;;;;;;;;5074288;28;20563;-62
2021/12/15 11:14:23;;;;;;;27.85;13.05;;;;;;;;;;5073524;28;19939;-63
2021/12/15 11:17:02;;;;;;;26.48;13.85;;;;;;;;;;5073253;28;20023;-62
2021/12/15 11:19:42;;;;;;;23.30;13.02;;;;;;;;;;5074218;28;20032;-62
2021/12/15 11:22:26;;;;;;;26.35;13.40;;;;;;;;;;5074237;28;20063;-63
2021/12/15 11:24:52;;;;;;;28.23;14.50;;;;;;;;;;5073630;28;20032;-64
2021/12/15 11:27:19;;;;;;;26.15;13.45;;;;;;;;;;5073626;28;20046;-62
2021/12/15 11:29:45;;;;;;;27.95;15.25;;;;;;;;;;5073809;28;20026;-63
2021/12/15 11:32:30;;;;;;;28.70;15.80;;;;;;;;;;5073863;28;20059;-62
2021/12/15 11:35:10;;;;;;;30.95;15.88;;;;;;;;;;5073595;28;20085;-63
2021/12/15 11:37:43;;;;;;;33.42;16.13;;;;;;;;;;5072481;28;20056;-63
2021/12/15 11:40:10;;;;;;;30.38;15.15;;;;;;;;;;5073375;28;20028;-60
2021/12/15 11:42:40;;;;;;;29.30;14.82;;;;;;;;;;5073711;28;20095;-62
2021/12/15 11:45:07;;;;;;;26.55;15.45;;;;;;;;;;5073893;28;20027;-64
2021/12/15 11:47:34;;;;;;;31.10;15.35;;;;;;;;;;5073435;28;20456;-65
2021/12/15 11:50:26;;;;;;;26.70;14.50;;;;;;;;;;5073356;28;20479;-62
2021/12/15 11:52:52;;;;;;;30.13;15.20;;;;;;;;;;5069128;28;20040;-62
2021/12/15 11:55:28;;;;;;;34.38;15.68;;;;;;;;;;5073164;28;20021;-63
2021/12/15 11:57:54;;;;;;;30.20;15.77;;;;;;;;;;5073291;28;20059;-64
2021/12/15 12:00:23;;;;;;;32.70;16.15;;;;;;;;;;5073756;28;20037;-64
2021/12/15 12:02:54;;;;;;;28.38;14.93;;;;;;;;;;5072865;28;20096;-63
2021/12/15 12:05:37;;;;;;;30.67;15.75;;;;;;;;;;5074034;28;20513;-62
2021/12/15 12:08:10;;;;;;;35.13;16.85;;;;;;;;;;5073372;28;20032;-61
2021/12/15 12:10:45;;;;;;;34.20;17.10;;;;;;;;;;5072740;28;20033;-62
2021/12/15 12:13:15;;;;;;;34.88;16.52;;;;;;;;;;5073448;28;20530;-65
2021/12/15 12:15:43;;;;;;;30.48;16.25;;;;;;;;;;5073394;28;20399;-64
2021/12/15 12:18:28;;;;;;;36.50;16.63;;;;;;;;;;5073275;28;20016;-63
2021/12/15 12:20:56;;;;;;;37.85;16.33;;;;;;;;;;5073631;28;20020;-62
2021/12/15 12:23:24;;;;;;;27.75;14.57;;;;;;;;;;5073074;28;20021;-64
2021/12/15 12:25:56;;;;;;;34.95;16.85;;;;;;;;;;5073250;28;20410;-65
2021/12/15 12:28:23;;;;;;;31.13;15.25;;;;;;;;;;5076947;28;20053;-65
2021/12/15 12:31:01;;;;;;;38.03;17.67;;;;;;;;;;5076634;28;20028;-64
2021/12/15 12:33:28;;;;;;;33.90;15.90;;;;;;;;;;5077043;28;20017;-65
2021/12/15 12:35:56;;;;;;;32.05;16.77;;;;;;;;;;5077079;28;20024;-65
2021/12/15 12:38:25;;;;;;;35.00;17.10;;;;;;;;;;5076370;28;21960;-64
2021/12/15 12:40:51;;;;;;;33.45;18.55;;;;;;;;;;5076987;28;20021;-62
2021/12/15 12:43:22;;;;;;;29.70;16.30;;;;;;;;;;5076369;28;20505;-62
2021/12/15 12:47:00;;;;;;;39.88;17.48;;;;;;;;;;5076628;28;20531;-63
2021/12/15 12:49:52;;;;;;;36.13;15.52;;;;;;;;;;5065772;28;20032;-62
2021/12/15 13:00:30;;;;;;;33.15;15.32;;;;;;;;;;5076616;28;20044;-61
2021/12/15 13:03:04;;;;;;;34.60;16.27;;;;;;;;;;5076886;28;20047;-66
2021/12/15 13:05:31;;;;;;;36.95;17.90;;;;;;;;;;5076284;28;20517;-63
2021/12/15 13:07:58;;;;;;;35.78;15.80;;;;;;;;;;5075971;28;20025;-63
2021/12/15 13:10:43;;;;;;;32.35;16.30;;;;;;;;;;5075934;28;20382;-66
2021/12/15 13:13:13;;;;;;;30.05;15.60;;;;;;;;;;5076064;28;20107;-62
2021/12/15 13:15:40;;;;;;;30.98;14.98;;;;;;;;;;5076314;28;20048;-63
2021/12/15 13:18:12;;;;;;;28.65;14.95;;;;;;;;;;5076082;28;20048;-62
2021/12/15 13:20:38;;;;;;;36.95;16.60;;;;;;;;;;5076596;28;20024;-63
2021/12/15 13:23:41;;;;;;;34.72;15.90;;;;;;;;;;5076027;28;20048;-63
2021/12/15 13:28:50;;;;;;;56.88;23.20;;;;;;;;;;5076048;28;20065;-63
2021/12/15 13:31:19;;;;;;;31.80;16.25;;;;;;;;;;5076130;28;20039;-62
2021/12/15 13:33:56;;;;;;;37.17;17.45;;;;;;;;;;5075340;28;20222;-64
2021/12/15 13:36:38;;;;;;;33.63;16.70;;;;;;;;;;5076019;28;20012;-63
2021/12/15 13:39:04;;;;;;;36.22;17.27;;;;;;;;;;5073605;28;20025;-62
2021/12/15 13:41:44;;;;;;;28.35;14.40;;;;;;;;;;5075605;28;20043;-62
2021/12/15 13:44:16;;;;;;;29.63;14.63;;;;;;;;;;5076385;28;20075;-62
2021/12/15 13:46:48;;;;;;;31.85;14.45;;;;;;;;;;5075112;28;20103;-64
2021/12/15 13:49:22;;;;;;;27.30;14.70;;;;;;;;;;5075500;28;20043;-60
2021/12/15 13:51:51;;;;;;;31.10;14.20;;;;;;;;;;5075636;28;20537;-52
2021/12/15 13:54:23;;;;;;;29.02;15.32;;;;;;;;;;5075199;28;20451;-54
2021/12/15 13:56:54;;;;;;;33.67;16.92;;;;;;;;;;5075371;28;20024;-62
2021/12/15 13:59:27;;;;;;;34.45;16.77;;;;;;;;;;5075183;28;20131;-56
2021/12/15 14:02:13;;;;;;;33.90;16.30;;;;;;;;;;5058238;28;20063;-61
2021/12/15 14:04:47;;;;;;;35.92;16.17;;;;;;;;;;5050775;28;20021;-54
2021/12/15 14:07:28;;;;;;;28.60;14.52;;;;;;;;;;5055017;28;20114;-58
2021/12/15 14:09:55;;;;;;;31.77;15.73;;;;;;;;;;5054304;28;20057;-55
2021/12/15 14:12:40;;;;;;;33.60;16.50;;;;;;;;;;5054523;28;20044;-61
2021/12/15 14:15:07;;;;;;;35.80;16.88;;;;;;;;;;5054019;28;20047;-57
2021/12/15 14:17:33;;;;;;;35.05;16.48;;;;;;;;;;5035883;28;20479;-61
2021/12/15 14:19:59;;;;;;;33.70;17.15;;;;;;;;;;5037112;28;20040;-52
2021/12/15 14:22:26;;;;;;;38.95;17.67;;;;;;;;;;5054620;28;20021;-60
2021/12/15 14:24:54;;;;;;;36.85;17.52;;;;;;;;;;5054521;28;20036;-59
2021/12/15 14:27:21;;;;;;;39.80;19.05;;;;;;;;;;5054032;28;20029;-60
2021/12/15 14:29:48;;;;;;;40.35;20.20;;;;;;;;;;5052763;28;20032;-57
2021/12/15 14:32:14;;;;;;;37.28;18.73;;;;;;;;;;5053343;28;20175;-58
2021/12/15 14:34:42;;;;;;;41.75;19.85;;;;;;;;;;5053653;28;20021;-55
2021/12/15 14:37:12;;;;;;;36.58;17.38;;;;;;;;;;5054637;28;20375;-57
2021/12/15 14:39:40;;;;;;;39.53;17.73;;;;;;;;;;5053769;28;20033;-58
2021/12/15 14:42:11;;;;;;;41.42;19.27;;;;;;;;;;5054099;28;20021;-56
2021/12/15 14:44:39;;;;;;;42.30;18.40;;;;;;;;;;5053635;28;20463;-55
2021/12/15 14:47:08;;;;;;;40.22;19.17;;;;;;;;;;5054034;28;20486;-59
2021/12/15 14:49:36;;;;;;;43.30;18.65;;;;;;;;;;5053899;28;20057;-53
2021/12/15 14:52:05;;;;;;;37.90;18.02;;;;;;;;;;5053178;28;20017;-54
2021/12/15 14:54:32;;;;;;;40.22;18.73;;;;;;;;;;5054682;28;20052;-51
2021/12/15 14:56:59;;;;;;;36.55;18.90;;;;;;;;;;5054205;28;20045;-53
2021/12/15 14:59:28;;;;;;;41.10;18.42;;;;;;;;;;5053936;28;20041;-58
2021/12/15 15:01:57;;;;;;;37.67;17.90;;;;;;;;;;5053819;28;20356;-54
2021/12/15 15:04:25;;;;;;;34.15;16.23;;;;;;;;;;5053905;28;20108;-54
2021/12/15 15:07:19;;;;;;;38.50;17.92;;;;;;;;;;5054311;28;20040;-69
2021/12/15 15:09:47;;;;;;;38.83;17.65;;;;;;;;;;5054569;28;20055;-67
2021/12/15 15:12:40;;;;;;;43.33;18.42;;;;;;;;;;5052742;28;20100;-67
2021/12/15 15:15:06;;;;;;;37.05;17.55;;;;;;;;;;5030286;28;20079;-67
2021/12/15 15:17:55;;;;;;;39.22;18.48;;;;;;;;;;5051762;28;20448;-67
2021/12/15 15:20:36;;;;;;;37.72;17.10;;;;;;;;;;5053250;28;20087;-67
2021/12/15 15:23:45;;;;;;;37.40;17.63;;;;;;;;;;5053234;28;20399;-69
2021/12/15 15:26:13;;;;;;;39.65;16.50;;;;;;;;;;4991561;28;20030;-66
2021/12/15 15:28:50;;;;;;;34.90;16.80;;;;;;;;;;4991808;28;20030;-65
2021/12/15 15:31:25;;;;;;;39.85;18.00;;;;;;;;;;5027604;28;20025;-70
2021/12/15 15:33:51;;;;;;;39.22;15.90;;;;;;;;;;5051665;28;20051;-65
2021/12/15 15:36:28;;;;;;;36.22;18.50;;;;;;;;;;5053274;28;20091;-65
2021/12/15 15:38:55;;;;;;;38.83;18.60;;;;;;;;;;5053605;28;20494;-66
2021/12/15 15:41:23;;;;;;;43.25;21.05;;;;;;;;;;5053226;28;20029;-67
2021/12/15 15:43:57;;;;;;;53.45;22.60;;;;;;;;;;5052073;28;20040;-65
2021/12/15 15:46:28;;;;;;;48.20;21.48;;;;;;;;;;5052532;28;20021;-68
2021/12/15 15:48:54;;;;;;;39.25;19.02;;;;;;;;;;5053447;28;20446;-62